Kingston/Norman Rogers Airport

Airport
ICAO code: 
CYGK
IATA Code: 
YGK
Summary
ICAO Region: 
NAM
Territory: 
Location: 
Kingston, Ontario,
Serving: 
Kingston
Elevation: 
303 ft
Coordinates: 
Aerial View: 
44° 13' 22.717" N, 76° 35' 58.038" W
Airport WX: 
Lake Effect Snow
Metar
Observation
CYGK 201100Z 07007KT 12SM VCSH FEW010 BKN055 BKN120 10/10 A2979 RMK SF1SC5AC1 SLP092
Station
Kingston, Ont.
Date/Time
2022-05-20 11:00:00
Wind direction
70°
Wind speed
07 kts
Lowest cloud amount
few clouds
Temperature
10°C
Dew point
10°C
Humidity
100%
Weather condition
in vicinity: showers

Description

Kingston Airport, or Norman Rogers Airport, is an airport located 4.3 nm west of the center of Kingston, Ontario, Canada.

Climatology

Humid Continental climate (Köppen climate classification Dfb) - Variable weather patterns and a large seasonal temperature variance. Summers are often warm and humid with frequent thunderstorms and winters can be very cold with frequent snowfall and persistent snow cover.

Runways

Designator Length Width Surface Rops
7/25 1199 30 ASP Yes/Yes
1/19 1524 30 ASP Yes/Yes
Airport map: 
Aerial View: 

SKYbrary Partners:

Safety knowledge contributed by: